createdAt,value
2022-08-18T00:00:57.229Z,51.38
2022-08-18T00:03:27.154Z,51.27
2022-08-18T00:06:10.736Z,51.12
2022-08-18T00:08:38.670Z,51.32
2022-08-18T00:11:06.432Z,51.28
2022-08-18T00:13:33.161Z,51.38
2022-08-18T00:15:59.753Z,51.45
2022-08-18T00:18:26.311Z,51.01
2022-08-18T00:20:53.107Z,51.04
2022-08-18T00:25:38.144Z,51.13
2022-08-18T00:28:05.881Z,51.06
2022-08-18T00:30:32.775Z,51.36
2022-08-18T00:33:01.337Z,51.11
2022-08-18T00:35:34.834Z,51.52
2022-08-18T00:38:04.239Z,51.20
2022-08-18T00:40:38.961Z,51.51
2022-08-18T00:43:08.189Z,51.78
2022-08-18T00:45:43.043Z,51.87
2022-08-18T00:48:11.275Z,51.78
2022-08-18T00:51:07.548Z,51.84
2022-08-18T00:53:42.068Z,51.69
2022-08-18T00:56:13.527Z,51.95
2022-08-18T00:58:52.088Z,51.51
2022-08-18T01:01:25.979Z,51.75
2022-08-18T01:03:58.552Z,51.75
2022-08-18T01:06:33.208Z,51.62
2022-08-18T01:09:00.300Z,51.77
2022-08-18T01:11:28.165Z,51.63
2022-08-18T01:13:55.316Z,51.69
2022-08-18T01:16:52.359Z,51.99
2022-08-18T01:19:43.045Z,51.68
2022-08-18T01:22:49.765Z,51.81
2022-08-18T01:25:38.268Z,51.82
2022-08-18T01:28:05.789Z,52.04
2022-08-18T01:30:44.123Z,52.05
2022-08-18T01:33:12.265Z,52.12
2022-08-18T01:35:43.193Z,52.03
2022-08-18T01:41:23.172Z,52.23
2022-08-18T01:43:19.056Z,52.31
2022-08-18T01:45:45.753Z,52.24
2022-08-18T01:48:12.376Z,52.28
2022-08-18T01:50:41.296Z,52.53
2022-08-18T01:53:08.451Z,52.35
2022-08-18T01:55:37.056Z,52.53
2022-08-18T01:58:04.785Z,52.50
2022-08-18T02:00:32.370Z,52.49
2022-08-18T02:03:02.628Z,52.38
2022-08-18T02:05:36.457Z,52.15
2022-08-18T02:08:05.445Z,52.58
2022-08-18T02:10:33.425Z,52.29
2022-08-18T02:13:00.109Z,52.18
2022-08-18T02:15:28.070Z,52.63
2022-08-18T02:17:54.767Z,52.56
2022-08-18T02:20:21.626Z,52.38
2022-08-18T02:22:49.526Z,52.25
2022-08-18T02:25:17.438Z,52.39
2022-08-18T02:27:45.866Z,52.25
2022-08-18T02:30:15.522Z,51.63
2022-08-18T02:32:42.577Z,51.52
2022-08-18T02:35:11.802Z,51.83
2022-08-18T02:37:42.759Z,51.43
2022-08-18T02:40:15.498Z,51.81
2022-08-18T02:42:44.383Z,52.12
2022-08-18T02:45:12.731Z,52.14
2022-08-18T02:47:39.855Z,51.49
2022-08-18T02:50:07.901Z,51.53
2022-08-18T02:52:38.369Z,51.12
2022-08-18T02:55:07.599Z,51.40
2022-08-18T02:57:34.244Z,50.86
2022-08-18T03:00:00.818Z,50.81
2022-08-18T03:02:27.785Z,50.80
2022-08-18T03:04:54.354Z,50.81
2022-08-18T03:07:21.068Z,51.08
2022-08-18T03:09:47.622Z,50.81
2022-08-18T03:12:14.238Z,51.21
2022-08-18T03:14:40.824Z,51.29
2022-08-18T03:17:09.401Z,51.53
2022-08-18T03:19:36.762Z,51.71
2022-08-18T03:22:05.856Z,51.24
2022-08-18T03:24:52.572Z,51.41
2022-08-18T03:27:19.182Z,51.42
2022-08-18T03:29:45.742Z,51.57
2022-08-18T03:32:12.327Z,51.88
2022-08-18T03:34:39.020Z,51.77
2022-08-18T03:37:05.682Z,51.47
2022-08-18T03:39:32.493Z,51.35
2022-08-18T03:42:01.594Z,51.58
2022-08-18T03:44:36.596Z,51.38
2022-08-18T03:47:04.299Z,51.50
2022-08-18T03:52:00.621Z,51.10
2022-08-18T03:54:28.477Z,50.67
2022-08-18T03:56:55.979Z,50.52
2022-08-18T03:59:25.447Z,50.54
2022-08-18T04:01:54.923Z,50.48
2022-08-18T04:04:25.054Z,50.51
2022-08-18T04:06:58.445Z,50.00
2022-08-18T04:09:28.040Z,50.31
2022-08-18T04:11:55.417Z,50.25
2022-08-18T04:14:24.957Z,50.14
2022-08-18T04:16:52.093Z,50.60
2022-08-18T04:19:27.367Z,50.91
2022-08-18T04:21:58.304Z,51.16
2022-08-18T04:24:28.138Z,51.09
2022-08-18T04:27:00.985Z,51.70
2022-08-18T04:29:29.185Z,51.92
2022-08-18T04:31:56.122Z,52.02
2022-08-18T04:34:22.930Z,51.85
2022-08-18T04:36:53.852Z,51.79
2022-08-18T04:39:21.795Z,51.77
2022-08-18T04:44:07.424Z,52.01
2022-08-18T04:46:49.531Z,52.23
2022-08-18T04:49:18.891Z,52.55
2022-08-18T04:54:16.364Z,53.01
2022-08-18T04:56:43.543Z,53.29
2022-08-18T04:59:14.276Z,53.25
2022-08-18T05:01:47.519Z,53.22
2022-08-18T05:04:16.201Z,53.29
2022-08-18T05:06:44.797Z,53.52
2022-08-18T05:09:16.880Z,53.87
2022-08-18T05:11:51.009Z,53.90
2022-08-18T05:14:18.651Z,54.02
2022-08-18T05:16:48.138Z,54.41
2022-08-18T05:19:21.869Z,54.02
2022-08-18T05:21:52.183Z,54.60
2022-08-18T05:24:20.676Z,54.78
2022-08-18T05:26:48.962Z,54.91
2022-08-18T05:31:29.009Z,55.00
2022-08-18T05:36:43.589Z,55.35
2022-08-18T05:39:25.145Z,55.24
2022-08-18T05:42:07.562Z,55.15
2022-08-18T05:44:43.060Z,55.43
2022-08-18T05:47:16.126Z,55.43
2022-08-18T05:49:49.092Z,55.73
2022-08-18T05:52:27.636Z,55.89
2022-08-18T05:57:22.450Z,56.11
2022-08-18T05:59:53.812Z,56.11
2022-08-18T06:02:38.568Z,55.96
2022-08-18T06:05:12.767Z,55.91
2022-08-18T06:07:49.121Z,55.99
2022-08-18T06:10:16.276Z,56.43
2022-08-18T06:12:53.491Z,56.11
2022-08-18T06:15:33.925Z,56.47
2022-08-18T06:18:26.501Z,56.38
2022-08-18T06:21:04.917Z,56.49
2022-08-18T06:23:40.487Z,56.28
2022-08-18T06:26:18.406Z,56.56
2022-08-18T06:29:05.241Z,56.26
2022-08-18T06:32:01.259Z,56.38
2022-08-18T06:35:12.031Z,56.20
2022-08-18T06:38:19.061Z,56.09
2022-08-18T06:40:48.697Z,56.19
2022-08-18T06:43:17.113Z,56.46
2022-08-18T06:45:51.812Z,56.47
2022-08-18T06:48:37.631Z,56.06
2022-08-18T06:51:07.845Z,56.44
2022-08-18T06:54:01.710Z,56.47
2022-08-18T06:56:34.996Z,56.52
2022-08-18T06:59:16.145Z,56.12
2022-08-18T07:01:44.263Z,56.29
2022-08-18T07:04:33.612Z,56.12
2022-08-18T07:07:13.553Z,55.96
2022-08-18T07:09:40.431Z,56.00
2022-08-18T07:12:09.404Z,55.85
2022-08-18T07:14:52.565Z,55.80
2022-08-18T07:17:42.471Z,55.71
2022-08-18T07:20:31.244Z,55.65
2022-08-18T07:23:01.026Z,55.69
2022-08-18T07:25:46.653Z,55.78
2022-08-18T07:28:33.777Z,55.67
2022-08-18T07:31:25.005Z,55.38
2022-08-18T07:36:19.544Z,55.24
2022-08-18T07:41:38.789Z,54.70
2022-08-18T07:44:16.431Z,54.79
2022-08-18T07:46:58.661Z,54.85
2022-08-18T07:49:33.399Z,54.38
2022-08-18T07:52:36.164Z,54.54
2022-08-18T07:55:29.007Z,54.24
2022-08-18T07:58:23.408Z,54.34
2022-08-18T08:01:09.537Z,54.77
2022-08-18T08:04:25.486Z,54.59
2022-08-18T08:07:23.968Z,54.81
2022-08-18T08:10:00.429Z,54.91
2022-08-18T08:12:39.928Z,54.78
2022-08-18T08:15:27.626Z,54.93
2022-08-18T08:18:18.558Z,55.26
2022-08-18T08:20:57.536Z,54.88
2022-08-18T08:23:46.019Z,54.94
2022-08-18T08:26:21.724Z,55.05
2022-08-18T08:28:55.919Z,55.33
2022-08-18T08:33:50.325Z,55.08
2022-08-18T08:36:25.681Z,55.33
2022-08-18T08:38:58.101Z,55.56
2022-08-18T08:41:36.089Z,55.42
2022-08-18T08:44:21.540Z,55.40
2022-08-18T08:47:13.033Z,55.53
2022-08-18T08:50:00.409Z,55.46
2022-08-18T08:52:35.167Z,55.63
2022-08-18T08:55:14.739Z,55.55
2022-08-18T08:57:49.780Z,55.70
2022-08-18T09:00:16.794Z,55.57
2022-08-18T09:02:52.257Z,55.92
2022-08-18T09:05:24.912Z,55.61
2022-08-18T09:08:20.182Z,55.78
2022-08-18T09:11:08.478Z,55.81
2022-08-18T09:14:08.414Z,55.84
2022-08-18T09:16:49.120Z,56.09
2022-08-18T09:19:59.232Z,55.81
2022-08-18T09:22:42.310Z,55.92
2022-08-18T09:25:11.373Z,55.98
2022-08-18T09:28:10.060Z,56.16
2022-08-18T09:30:55.196Z,55.87
2022-08-18T09:33:40.648Z,55.98
2022-08-18T09:36:21.101Z,55.78
2022-08-18T09:39:18.586Z,55.91
2022-08-18T09:42:01.688Z,55.76
2022-08-18T09:44:48.680Z,56.00
2022-08-18T09:47:22.227Z,55.74
2022-08-18T09:50:26.946Z,55.46
2022-08-18T09:52:57.759Z,55.42
2022-08-18T09:55:24.408Z,55.40
2022-08-18T09:58:14.972Z,55.13
2022-08-18T10:00:46.540Z,54.67
2022-08-18T10:03:25.731Z,54.28
2022-08-18T10:06:05.100Z,54.25
2022-08-18T10:09:14.723Z,54.12
2022-08-18T10:12:40.318Z,54.24
2022-08-18T10:15:13.128Z,53.95
2022-08-18T10:18:01.645Z,54.30
2022-08-18T10:20:47.641Z,54.07
2022-08-18T10:25:34.287Z,54.40
2022-08-18T10:28:05.393Z,54.17
2022-08-18T10:30:56.264Z,54.12
2022-08-18T10:33:56.977Z,53.93
2022-08-18T10:36:58.967Z,53.93
2022-08-18T10:42:33.672Z,53.83
2022-08-18T10:45:12.445Z,53.69
2022-08-18T10:47:42.843Z,53.77
2022-08-18T10:50:23.004Z,53.49
2022-08-18T10:53:40.553Z,53.41
2022-08-18T10:56:16.868Z,53.53
2022-08-18T10:59:08.427Z,53.61
2022-08-18T11:02:16.457Z,53.50
2022-08-18T11:07:38.718Z,53.52
2022-08-18T11:13:46.628Z,53.72
2022-08-18T11:16:37.882Z,53.56
2022-08-18T11:19:12.758Z,53.49
2022-08-18T11:21:43.415Z,53.57
2022-08-18T11:24:13.448Z,53.59
2022-08-18T11:30:12.068Z,53.53
2022-08-18T11:32:51.439Z,53.58
2022-08-18T11:35:21.908Z,53.58
2022-08-18T11:37:56.117Z,53.42
2022-08-18T11:43:41.700Z,53.00
2022-08-18T11:46:29.362Z,52.85
2022-08-18T11:49:00.029Z,52.79
2022-08-18T11:51:32.244Z,52.77
2022-08-18T11:54:01.011Z,52.63
2022-08-18T11:59:52.981Z,52.67
2022-08-18T12:02:17.465Z,52.75
2022-08-18T12:04:44.647Z,52.93
2022-08-18T12:07:20.500Z,52.90
2022-08-18T12:10:28.421Z,52.81
2022-08-18T12:12:57.529Z,52.95
2022-08-18T12:15:46.588Z,52.91
2022-08-18T12:18:26.473Z,53.01
2022-08-18T12:21:05.405Z,52.79
2022-08-18T12:23:39.095Z,53.19
2022-08-18T12:26:27.344Z,52.97
2022-08-18T12:29:01.230Z,52.99
2022-08-18T12:31:29.140Z,52.94
2022-08-18T12:37:00.812Z,52.96
2022-08-18T12:39:28.508Z,53.13
2022-08-18T12:41:56.214Z,53.12
2022-08-18T12:44:29.157Z,53.29
2022-08-18T12:46:56.040Z,53.40
2022-08-18T12:49:25.498Z,53.60
2022-08-18T12:54:55.557Z,53.49
2022-08-18T12:57:33.499Z,53.58
2022-08-18T13:00:18.748Z,53.76
2022-08-18T13:02:45.806Z,53.87
2022-08-18T13:05:12.505Z,53.79
2022-08-18T13:09:54.654Z,53.88
2022-08-18T13:12:22.469Z,53.75
2022-08-18T13:19:33.393Z,53.84
2022-08-18T13:22:00.468Z,53.82
2022-08-18T13:24:27.424Z,53.83
2022-08-18T13:26:55.497Z,53.84
2022-08-18T13:29:22.220Z,53.74
2022-08-18T13:31:55.840Z,53.83
2022-08-18T13:34:29.831Z,53.98
2022-08-18T13:36:57.440Z,53.85
2022-08-18T13:39:24.830Z,54.06
2022-08-18T13:42:01.381Z,54.10
2022-08-18T13:44:52.864Z,54.01
2022-08-18T13:47:20.161Z,53.90
2022-08-18T13:49:57.986Z,52.47
2022-08-18T13:52:34.847Z,50.52
2022-08-18T13:55:08.368Z,49.35
2022-08-18T13:57:36.741Z,48.62
2022-08-18T14:00:06.442Z,48.02
2022-08-18T14:02:40.427Z,47.55
2022-08-18T14:05:09.331Z,47.65
2022-08-18T14:07:38.393Z,47.62
2022-08-18T14:10:13.292Z,47.74
2022-08-18T14:12:41.309Z,47.20
2022-08-18T14:15:11.838Z,47.17
2022-08-18T14:17:39.257Z,46.83
2022-08-18T14:20:27.586Z,46.70
2022-08-18T14:23:21.807Z,46.98
2022-08-18T14:26:09.934Z,46.68
2022-08-18T14:28:38.450Z,46.57
2022-08-18T14:31:08.603Z,46.18
2022-08-18T14:33:50.577Z,46.21
2022-08-18T14:36:19.544Z,46.12
2022-08-18T14:38:46.418Z,45.89
2022-08-18T14:41:19.137Z,46.06
2022-08-18T14:44:11.473Z,45.71
2022-08-18T14:46:34.719Z,45.56
2022-08-18T14:49:03.920Z,45.23
2022-08-18T14:51:33.641Z,45.21
2022-08-18T14:54:01.985Z,45.63
2022-08-18T14:56:29.733Z,45.25
2022-08-18T14:59:01.000Z,45.64
2022-08-18T15:01:27.782Z,45.65
2022-08-18T15:04:18.604Z,45.51
2022-08-18T15:06:56.555Z,45.45
2022-08-18T15:09:26.997Z,45.01
2022-08-18T15:11:56.343Z,45.02
2022-08-18T15:14:33.118Z,45.31
2022-08-18T15:17:11.849Z,44.85
2022-08-18T15:19:58.373Z,45.21
2022-08-18T15:22:45.012Z,45.61
2022-08-18T15:25:30.183Z,45.27
2022-08-18T15:27:57.655Z,45.09
2022-08-18T15:30:26.321Z,45.29
2022-08-18T15:32:53.799Z,44.98
2022-08-18T15:35:20.630Z,45.09
2022-08-18T15:37:51.096Z,45.29
2022-08-18T15:40:30.836Z,45.15
2022-08-18T15:43:09.710Z,45.29
2022-08-18T15:45:42.917Z,45.47
2022-08-18T15:48:12.611Z,45.21
2022-08-18T15:50:40.428Z,44.80
2022-08-18T15:53:11.532Z,44.95
2022-08-18T15:55:40.648Z,44.73
2022-08-18T15:58:11.215Z,45.23
2022-08-18T16:00:42.683Z,45.30
2022-08-18T16:03:14.410Z,45.58
2022-08-18T16:05:53.440Z,45.48
2022-08-18T16:08:23.543Z,45.43
2022-08-18T16:10:50.823Z,44.90
2022-08-18T16:13:17.869Z,45.12
2022-08-18T16:15:48.071Z,45.35
2022-08-18T16:18:18.640Z,45.05
2022-08-18T16:20:45.977Z,44.94
2022-08-18T16:23:13.648Z,45.21
2022-08-18T16:25:42.133Z,45.14
2022-08-18T16:28:09.467Z,45.15
2022-08-18T16:30:36.316Z,45.64
2022-08-18T16:33:04.892Z,45.51
2022-08-18T16:35:33.088Z,45.70
2022-08-18T16:38:05.768Z,45.41
2022-08-18T16:40:35.193Z,45.42
2022-08-18T16:43:01.799Z,45.86
2022-08-18T16:45:28.747Z,45.51
2022-08-18T16:47:55.625Z,45.78
2022-08-18T16:50:23.529Z,45.92
2022-08-18T16:52:50.199Z,45.55
2022-08-18T16:55:17.049Z,45.86
2022-08-18T16:58:03.075Z,45.76
2022-08-18T17:00:54.465Z,45.60
2022-08-18T17:05:43.139Z,45.51
2022-08-18T17:08:09.763Z,45.59
2022-08-18T17:10:37.909Z,45.42
2022-08-18T17:13:06.446Z,45.26
2022-08-18T17:15:33.777Z,45.44
2022-08-18T17:18:01.228Z,45.14
2022-08-18T17:20:27.846Z,45.15
2022-08-18T17:22:55.315Z,45.07
2022-08-18T17:25:24.979Z,44.89
2022-08-18T17:27:51.747Z,44.67
2022-08-18T17:30:22.679Z,44.68
2022-08-18T17:32:54.932Z,44.83
2022-08-18T17:38:11.890Z,44.55
2022-08-18T17:41:07.649Z,44.66
2022-08-18T17:43:38.162Z,44.80
2022-08-18T17:46:27.080Z,44.82
2022-08-18T17:49:05.925Z,45.05
2022-08-18T17:51:44.387Z,45.13
2022-08-18T17:54:36.399Z,45.18
2022-08-18T17:57:13.895Z,44.99
2022-08-18T18:00:13.841Z,44.84
2022-08-18T18:02:42.581Z,44.72
2022-08-18T18:05:14.265Z,44.91
2022-08-18T18:10:14.317Z,44.86
2022-08-18T18:12:41.452Z,45.28
2022-08-18T18:15:11.907Z,45.44
2022-08-18T18:17:43.287Z,45.51
2022-08-18T18:20:40.384Z,45.54
2022-08-18T18:23:19.452Z,45.54
2022-08-18T18:25:46.396Z,45.51
2022-08-18T18:28:34.215Z,45.48
2022-08-18T18:31:21.461Z,45.67
2022-08-18T18:33:55.993Z,45.72
2022-08-18T18:36:35.150Z,45.70
2022-08-18T18:39:14.697Z,45.94
2022-08-18T18:41:41.696Z,45.94
2022-08-18T18:44:10.664Z,45.78
2022-08-18T18:46:49.424Z,45.74
2022-08-18T18:49:26.670Z,45.78
2022-08-18T18:52:19.253Z,45.74
2022-08-18T18:55:14.704Z,45.76
2022-08-18T18:58:11.356Z,45.68
2022-08-18T19:00:53.561Z,45.48
2022-08-18T19:03:28.684Z,45.64
2022-08-18T19:06:08.232Z,45.72
2022-08-18T19:08:39.558Z,45.63
2022-08-18T19:11:19.345Z,45.69
2022-08-18T19:13:57.876Z,45.45
2022-08-18T19:16:33.807Z,45.81
2022-08-18T19:19:36.948Z,45.63
2022-08-18T19:22:06.711Z,45.71
2022-08-18T19:24:40.768Z,45.72
2022-08-18T19:27:17.675Z,45.59
2022-08-18T19:29:53.300Z,45.79
2022-08-18T19:32:35.869Z,45.72
2022-08-18T19:35:10.563Z,45.62
2022-08-18T19:37:47.979Z,45.83
2022-08-18T19:40:26.420Z,45.64
2022-08-18T19:42:58.555Z,45.90
2022-08-18T19:45:36.552Z,45.75
2022-08-18T19:48:39.296Z,45.70
2022-08-18T19:51:26.816Z,45.75
2022-08-18T19:53:59.156Z,45.82
2022-08-18T19:56:47.349Z,45.79
2022-08-18T19:59:34.032Z,45.88
2022-08-18T20:02:29.181Z,45.97
2022-08-18T20:05:18.585Z,46.11
2022-08-18T20:08:15.493Z,46.25
2022-08-18T20:11:41.835Z,46.15
2022-08-18T20:14:15.045Z,46.43
2022-08-18T20:16:44.904Z,46.44
2022-08-18T20:19:50.036Z,46.66
2022-08-18T20:22:22.041Z,46.67
2022-08-18T20:24:59.629Z,46.74
2022-08-18T20:27:39.788Z,46.82
2022-08-18T20:30:50.613Z,46.72
2022-08-18T20:33:30.571Z,46.83
2022-08-18T20:36:24.101Z,46.72
2022-08-18T20:38:54.529Z,46.80
2022-08-18T20:41:26.446Z,46.69
2022-08-18T20:44:13.209Z,46.53
2022-08-18T20:46:56.893Z,46.50
2022-08-18T20:49:45.028Z,46.72
2022-08-18T20:52:29.542Z,46.71
2022-08-18T20:55:30.789Z,46.84
2022-08-18T20:58:05.585Z,47.04
2022-08-18T21:00:37.379Z,47.29
2022-08-18T21:03:12.539Z,47.05
2022-08-18T21:05:43.631Z,47.39
2022-08-18T21:08:16.511Z,47.43
2022-08-18T21:10:52.251Z,47.38
2022-08-18T21:13:31.093Z,47.46
2022-08-18T21:15:59.289Z,47.49
2022-08-18T21:18:27.032Z,47.55
2022-08-18T21:20:57.943Z,47.63
2022-08-18T21:23:39.229Z,47.68
2022-08-18T21:26:14.670Z,47.61
2022-08-18T21:28:46.052Z,47.76
2022-08-18T21:31:42.575Z,47.75
2022-08-18T21:34:28.517Z,47.93
2022-08-18T21:36:57.978Z,47.84
2022-08-18T21:39:25.251Z,47.82
2022-08-18T21:41:55.055Z,47.82
2022-08-18T21:44:24.895Z,47.97
2022-08-18T21:47:05.503Z,48.17
2022-08-18T21:49:33.901Z,48.10
2022-08-18T21:52:00.839Z,48.08
2022-08-18T21:54:34.551Z,48.17
2022-08-18T21:57:18.489Z,48.26
2022-08-18T22:00:20.521Z,48.21
2022-08-18T22:02:51.090Z,48.08
2022-08-18T22:05:58.578Z,48.01
2022-08-18T22:08:46.611Z,48.37
2022-08-18T22:12:01.084Z,48.18
2022-08-18T22:14:35.857Z,48.20
2022-08-18T22:17:52.045Z,48.32
2022-08-18T22:20:39.812Z,48.39
2022-08-18T22:23:34.074Z,48.56
2022-08-18T22:26:17.569Z,48.45
2022-08-18T22:28:52.930Z,48.51
2022-08-18T22:31:21.510Z,48.39
2022-08-18T22:33:50.311Z,48.71
2022-08-18T22:36:25.465Z,48.73
2022-08-18T22:38:52.408Z,48.96
2022-08-18T22:41:20.411Z,48.83
2022-08-18T22:43:48.409Z,48.96
2022-08-18T22:46:21.665Z,49.18
2022-08-18T22:48:52.210Z,49.02
2022-08-18T22:51:22.403Z,49.13
2022-08-18T22:53:48.963Z,49.49
2022-08-18T22:56:15.569Z,49.50
2022-08-18T22:58:49.401Z,49.54
2022-08-18T23:01:17.903Z,49.40
2022-08-18T23:03:44.554Z,49.74
2022-08-18T23:08:32.307Z,49.87
2022-08-18T23:11:12.668Z,50.05
2022-08-18T23:13:40.929Z,49.62
2022-08-18T23:16:30.892Z,49.80
2022-08-18T23:18:56.324Z,49.99
2022-08-18T23:21:35.121Z,49.80
2022-08-18T23:24:06.439Z,50.11
2022-08-18T23:26:34.292Z,50.23
2022-08-18T23:29:01.748Z,50.35
2022-08-18T23:31:30.295Z,50.52
2022-08-18T23:33:58.853Z,50.18
2022-08-18T23:36:25.530Z,50.28
2022-08-18T23:38:54.001Z,50.29
2022-08-18T23:41:21.639Z,50.73
2022-08-18T23:43:49.392Z,50.66
2022-08-18T23:46:22.001Z,51.18
2022-08-18T23:48:52.863Z,50.87
2022-08-18T23:51:34.756Z,51.04
2022-08-18T23:54:07.671Z,51.07
2022-08-18T23:56:35.591Z,51.12
